createdAt,value
2023-05-10T00:00:14.098Z,9.20
2023-05-10T00:02:41.828Z,9.63
2023-05-10T00:05:09.594Z,9.50
2023-05-10T00:07:36.915Z,9.35
2023-05-10T00:10:04.550Z,9.20
2023-05-10T00:12:31.784Z,9.23
2023-05-10T00:14:59.236Z,9.43
2023-05-10T00:17:26.562Z,9.55
2023-05-10T00:19:53.923Z,9.90
2023-05-10T00:22:21.587Z,9.57
2023-05-10T00:24:48.967Z,9.45
2023-05-10T00:27:16.451Z,9.48
2023-05-10T00:29:43.832Z,9.70
2023-05-10T00:32:11.142Z,9.32
2023-05-10T00:34:38.428Z,9.45
2023-05-10T00:37:07.986Z,9.07
2023-05-10T00:39:35.542Z,9.45
2023-05-10T00:42:03.083Z,8.80
2023-05-10T00:44:30.495Z,9.20
2023-05-10T00:47:00.022Z,9.85
2023-05-10T00:49:27.751Z,9.13
2023-05-10T00:51:55.261Z,9.40
2023-05-10T00:54:22.870Z,10.45
2023-05-10T00:56:53.011Z,9.77
2023-05-10T00:59:21.824Z,9.32
2023-05-10T01:01:49.445Z,8.18
2023-05-10T01:04:16.879Z,8.88
2023-05-10T01:06:44.710Z,9.07
2023-05-10T01:09:12.846Z,7.90
2023-05-10T01:11:41.396Z,8.00
2023-05-10T01:14:09.226Z,8.25
2023-05-10T01:16:40.175Z,7.75
2023-05-10T01:19:36.116Z,7.60
2023-05-10T01:22:41.928Z,7.95
2023-05-10T01:25:18.704Z,7.82
2023-05-10T01:28:20.956Z,7.25
2023-05-10T01:31:14.097Z,7.00
2023-05-10T01:34:00.573Z,7.70
2023-05-10T01:36:43.488Z,7.25
2023-05-10T01:39:25.358Z,7.20
2023-05-10T01:41:58.682Z,6.80
2023-05-10T01:44:30.788Z,6.68
2023-05-10T01:47:11.829Z,7.20
2023-05-10T01:49:47.677Z,7.03
2023-05-10T01:52:20.360Z,7.50
2023-05-10T01:54:55.379Z,7.38
2023-05-10T01:57:27.055Z,7.18
2023-05-10T01:59:55.061Z,8.02
2023-05-10T02:02:23.945Z,7.18
2023-05-10T02:04:52.595Z,6.95
2023-05-10T02:07:21.283Z,7.25
2023-05-10T02:09:49.183Z,7.68
2023-05-10T02:12:17.443Z,7.38
2023-05-10T02:14:45.890Z,7.22
2023-05-10T02:17:13.783Z,6.30
2023-05-10T02:19:44.232Z,6.30
2023-05-10T02:22:12.624Z,6.65
2023-05-10T02:24:41.423Z,6.78
2023-05-10T02:27:10.934Z,6.93
2023-05-10T02:29:39.003Z,6.53
2023-05-10T02:32:07.399Z,6.60
2023-05-10T02:34:34.854Z,5.50
2023-05-10T02:37:04.341Z,5.63
2023-05-10T02:39:34.176Z,5.63
2023-05-10T02:42:03.454Z,5.50
2023-05-10T02:44:32.237Z,5.40
2023-05-10T02:47:00.073Z,5.00
2023-05-10T02:49:27.572Z,5.43
2023-05-10T02:52:02.609Z,4.88
2023-05-10T02:57:16.380Z,4.65
2023-05-10T02:59:44.197Z,4.60
2023-05-10T03:02:11.913Z,4.40
2023-05-10T03:04:39.402Z,3.30
2023-05-10T03:07:07.241Z,4.15
2023-05-10T03:09:34.748Z,4.03
2023-05-10T03:12:08.406Z,3.33
2023-05-10T03:14:54.579Z,3.88
2023-05-10T03:17:41.360Z,2.60
2023-05-10T03:20:12.812Z,2.53
2023-05-10T03:22:48.133Z,2.83
2023-05-10T03:25:17.699Z,3.40
2023-05-10T03:27:46.248Z,3.17
2023-05-10T03:30:15.241Z,3.08
2023-05-10T03:32:42.768Z,3.40
2023-05-10T03:35:11.078Z,2.85
2023-05-10T03:37:38.921Z,2.45
2023-05-10T03:40:07.614Z,2.20
2023-05-10T03:42:37.132Z,2.30
2023-05-10T03:45:04.580Z,2.25
2023-05-10T03:47:31.985Z,2.00
2023-05-10T03:50:00.397Z,1.77
2023-05-10T03:52:27.690Z,1.60
2023-05-10T03:54:54.968Z,1.48
2023-05-10T03:57:22.188Z,1.23
2023-05-10T03:59:49.451Z,1.30
2023-05-10T04:02:16.745Z,1.60
2023-05-10T04:04:44.101Z,1.38
2023-05-10T04:07:11.701Z,1.27
2023-05-10T04:09:39.074Z,1.60
2023-05-10T04:12:07.984Z,1.48
2023-05-10T04:14:36.208Z,1.15
2023-05-10T04:17:03.470Z,1.10
2023-05-10T04:19:31.579Z,1.20
2023-05-10T04:22:00.062Z,0.90
2023-05-10T04:24:27.207Z,1.10
2023-05-10T04:26:57.782Z,1.00
2023-05-10T04:29:25.380Z,1.10
2023-05-10T04:31:52.620Z,1.20
2023-05-10T04:34:21.774Z,0.90
2023-05-10T04:36:49.083Z,0.93
2023-05-10T04:39:16.327Z,1.10
2023-05-10T04:41:43.587Z,1.00
2023-05-10T04:44:10.813Z,1.10
2023-05-10T04:46:38.210Z,1.20
2023-05-10T04:49:05.398Z,1.20
2023-05-10T04:51:33.266Z,1.10
2023-05-10T04:54:05.865Z,1.10
2023-05-10T04:56:34.675Z,1.50
2023-05-10T04:59:01.970Z,1.00
2023-05-10T05:01:29.269Z,1.30
2023-05-10T05:03:57.291Z,1.13
2023-05-10T05:06:26.005Z,1.10
2023-05-10T05:08:53.290Z,1.80
2023-05-10T05:11:20.686Z,1.10
2023-05-10T05:13:47.938Z,1.65
2023-05-10T05:16:15.398Z,1.10
2023-05-10T05:18:42.668Z,1.10
2023-05-10T05:21:17.507Z,1.13
2023-05-10T05:23:44.724Z,1.20
2023-05-10T05:26:12.281Z,1.10
2023-05-10T05:28:39.834Z,1.30
2023-05-10T05:31:11.317Z,1.27
2023-05-10T05:33:38.726Z,1.17
2023-05-10T05:36:06.777Z,1.30
2023-05-10T05:38:34.169Z,1.50
2023-05-10T05:41:01.482Z,1.52
2023-05-10T05:43:28.812Z,1.50
2023-05-10T05:45:57.085Z,1.60
2023-05-10T05:48:24.547Z,1.40
2023-05-10T05:50:54.964Z,1.45
2023-05-10T05:53:22.355Z,1.55
2023-05-10T05:55:57.236Z,1.67
2023-05-10T05:58:24.846Z,1.60
2023-05-10T06:00:55.745Z,1.48
2023-05-10T06:03:23.213Z,1.73
2023-05-10T06:05:50.583Z,1.65
2023-05-10T06:08:17.886Z,1.55
2023-05-10T06:10:45.631Z,2.17
2023-05-10T06:13:13.103Z,1.70
2023-05-10T06:15:40.678Z,1.80
2023-05-10T06:18:08.095Z,1.77
2023-05-10T06:20:35.450Z,1.80
2023-05-10T06:23:02.607Z,1.65
2023-05-10T06:25:30.141Z,1.70
2023-05-10T06:27:58.977Z,2.20
2023-05-10T06:30:30.537Z,2.10
2023-05-10T06:32:58.031Z,1.80
2023-05-10T06:35:25.690Z,2.00
2023-05-10T06:37:53.073Z,2.13
2023-05-10T06:40:20.467Z,2.13
2023-05-10T06:42:49.011Z,1.90
2023-05-10T06:45:17.248Z,1.88
2023-05-10T06:47:44.906Z,2.00
2023-05-10T06:50:12.721Z,2.40
2023-05-10T06:52:40.244Z,2.05
2023-05-10T06:55:08.112Z,2.13
2023-05-10T06:57:35.642Z,1.90
2023-05-10T07:00:05.410Z,2.00
2023-05-10T07:02:33.134Z,2.22
2023-05-10T07:05:02.786Z,2.00
2023-05-10T07:07:30.894Z,1.73
2023-05-10T07:09:58.778Z,1.70
2023-05-10T07:12:26.515Z,1.95
2023-05-10T07:14:53.962Z,1.70
2023-05-10T07:17:21.319Z,1.83
2023-05-10T07:19:48.716Z,2.22
2023-05-10T07:22:16.729Z,1.95
2023-05-10T07:24:44.891Z,2.13
2023-05-10T07:27:12.169Z,2.00
2023-05-10T07:29:39.702Z,2.20
2023-05-10T07:32:07.341Z,1.90
2023-05-10T07:34:34.624Z,2.10
2023-05-10T07:37:02.458Z,2.00
2023-05-10T07:39:29.781Z,2.00
2023-05-10T07:41:57.491Z,2.20
2023-05-10T07:44:24.862Z,2.10
2023-05-10T07:46:52.235Z,2.25
2023-05-10T07:49:19.499Z,1.88
2023-05-10T07:51:46.786Z,2.20
2023-05-10T07:54:14.907Z,1.90
2023-05-10T07:56:46.567Z,1.90
2023-05-10T07:59:19.232Z,2.08
2023-05-10T08:01:46.493Z,1.95
2023-05-10T08:04:13.947Z,1.73
2023-05-10T08:06:41.592Z,1.85
2023-05-10T08:09:10.533Z,2.20
2023-05-10T08:11:37.940Z,2.60
2023-05-10T08:14:05.228Z,1.95
2023-05-10T08:16:33.580Z,2.75
2023-05-10T08:19:01.019Z,2.20
2023-05-10T08:21:28.369Z,2.25
2023-05-10T08:23:55.728Z,2.67
2023-05-10T08:26:23.067Z,2.25
2023-05-10T08:28:50.707Z,2.45
2023-05-10T08:31:19.143Z,2.30
2023-05-10T08:33:46.518Z,2.40
2023-05-10T08:36:15.352Z,2.33
2023-05-10T08:38:42.656Z,2.38
2023-05-10T08:41:11.402Z,2.28
2023-05-10T08:43:39.830Z,2.45
2023-05-10T08:46:08.830Z,2.60
2023-05-10T08:48:36.633Z,2.50
2023-05-10T08:51:05.025Z,2.67
2023-05-10T08:53:37.414Z,2.30
2023-05-10T08:56:05.313Z,2.53
2023-05-10T08:58:32.717Z,2.60
2023-05-10T09:01:01.959Z,2.22
2023-05-10T09:03:29.542Z,2.72
2023-05-10T09:05:57.043Z,2.80
2023-05-10T09:08:27.650Z,2.80
2023-05-10T09:10:58.122Z,2.47
2023-05-10T09:13:27.077Z,2.60
2023-05-10T09:15:54.551Z,2.78
2023-05-10T09:18:22.028Z,2.88
2023-05-10T09:20:50.075Z,3.05
2023-05-10T09:23:17.311Z,3.00
2023-05-10T09:25:44.575Z,3.33
2023-05-10T09:28:12.920Z,3.03
2023-05-10T09:30:40.748Z,3.15
2023-05-10T09:33:08.130Z,3.33
2023-05-10T09:35:35.495Z,3.42
2023-05-10T09:38:04.979Z,3.40
2023-05-10T09:40:32.873Z,2.63
2023-05-10T09:43:09.255Z,2.88
2023-05-10T09:45:38.570Z,3.35
2023-05-10T09:48:07.099Z,3.10
2023-05-10T09:50:35.395Z,2.90
2023-05-10T09:53:04.772Z,2.95
2023-05-10T09:55:47.029Z,3.13
2023-05-10T09:58:15.695Z,2.85
2023-05-10T10:00:49.004Z,2.80
2023-05-10T10:03:18.098Z,3.20
2023-05-10T10:05:47.324Z,2.92
2023-05-10T10:08:16.456Z,2.97
2023-05-10T10:10:47.228Z,2.90
2023-05-10T10:13:16.129Z,3.10
2023-05-10T10:15:45.158Z,3.05
2023-05-10T10:18:18.849Z,2.80
2023-05-10T10:20:46.805Z,3.30
2023-05-10T10:23:16.554Z,3.17
2023-05-10T10:25:45.924Z,3.00
2023-05-10T10:28:37.088Z,3.25
2023-05-10T10:31:35.544Z,3.30
2023-05-10T10:34:06.503Z,3.40
2023-05-10T10:36:47.219Z,3.33
2023-05-10T10:39:15.338Z,3.58
2023-05-10T10:41:53.741Z,3.40
2023-05-10T10:44:27.749Z,3.80
2023-05-10T10:47:13.399Z,3.45
2023-05-10T10:49:49.576Z,3.35
2023-05-10T10:52:23.134Z,3.10
2023-05-10T10:55:13.892Z,3.03
2023-05-10T10:57:52.980Z,3.80
2023-05-10T11:00:24.927Z,3.08
2023-05-10T11:05:30.149Z,3.28
2023-05-10T11:07:59.595Z,3.20
2023-05-10T11:10:28.238Z,3.00
2023-05-10T11:13:11.771Z,3.20
2023-05-10T11:15:40.715Z,3.42
2023-05-10T11:18:31.032Z,3.35
2023-05-10T11:21:01.172Z,3.28
2023-05-10T11:23:33.217Z,3.10
2023-05-10T11:26:02.282Z,3.10
2023-05-10T11:28:29.609Z,3.03
2023-05-10T11:30:57.652Z,3.13
2023-05-10T11:33:24.902Z,3.70
2023-05-10T11:35:52.164Z,3.30
2023-05-10T11:38:19.433Z,3.30
2023-05-10T11:40:46.649Z,3.05
2023-05-10T11:43:13.934Z,3.20
2023-05-10T11:45:42.544Z,3.55
2023-05-10T11:48:11.386Z,2.90
2023-05-10T11:50:38.887Z,3.63
2023-05-10T11:53:06.400Z,3.30
2023-05-10T11:55:35.651Z,3.30
2023-05-10T11:58:03.692Z,3.25
2023-05-10T12:00:31.635Z,3.47
2023-05-10T12:03:02.090Z,3.47
2023-05-10T12:05:32.603Z,3.38
2023-05-10T12:08:13.758Z,3.58
2023-05-10T12:10:41.256Z,3.67
2023-05-10T12:13:15.472Z,3.88
2023-05-10T12:15:44.124Z,3.10
2023-05-10T12:18:12.884Z,3.30
2023-05-10T12:20:41.274Z,3.60
2023-05-10T12:23:11.067Z,3.38
2023-05-10T12:25:39.878Z,3.50
2023-05-10T12:28:09.196Z,3.80
2023-05-10T12:30:37.620Z,3.63
2023-05-10T12:33:18.122Z,4.18
2023-05-10T12:35:54.217Z,4.28
2023-05-10T12:38:44.124Z,3.58
2023-05-10T12:41:13.288Z,3.70
2023-05-10T12:43:41.634Z,3.50
2023-05-10T12:46:14.018Z,3.50
2023-05-10T12:48:42.573Z,3.50
2023-05-10T12:51:12.748Z,3.60
2023-05-10T12:53:43.396Z,3.50
2023-05-10T12:58:39.707Z,3.60
2023-05-10T13:01:07.211Z,3.53
2023-05-10T13:03:34.606Z,3.08
2023-05-10T13:06:01.825Z,3.40
2023-05-10T13:08:33.688Z,3.20
2023-05-10T13:13:28.628Z,3.70
2023-05-10T13:15:55.928Z,3.50
2023-05-10T13:18:23.167Z,4.10
2023-05-10T13:20:50.769Z,3.30
2023-05-10T13:23:18.016Z,3.70
2023-05-10T13:25:45.198Z,3.28
2023-05-10T13:28:12.438Z,2.70
2023-05-10T13:30:39.635Z,3.10
2023-05-10T13:33:06.899Z,3.70
2023-05-10T13:35:34.273Z,3.10
2023-05-10T13:38:01.466Z,3.22
2023-05-10T13:40:29.268Z,3.40
2023-05-10T13:42:56.471Z,2.90
2023-05-10T13:45:23.732Z,2.90
2023-05-10T13:47:51.127Z,3.08
2023-05-10T13:50:19.177Z,2.70
2023-05-10T13:52:46.441Z,2.78
2023-05-10T13:55:14.369Z,3.10
2023-05-10T13:57:41.943Z,2.92
2023-05-10T14:00:09.749Z,3.42
2023-05-10T14:02:37.226Z,3.13
2023-05-10T14:05:04.927Z,3.22
2023-05-10T14:07:32.288Z,3.60
2023-05-10T14:09:59.501Z,3.50
2023-05-10T14:12:26.940Z,3.40
2023-05-10T14:14:54.211Z,3.38
2023-05-10T14:17:21.530Z,3.35
2023-05-10T14:19:48.675Z,3.20
2023-05-10T14:22:15.872Z,3.33
2023-05-10T14:24:44.510Z,3.50
2023-05-10T14:27:11.880Z,3.50
2023-05-10T14:29:39.110Z,3.13
2023-05-10T14:32:06.908Z,2.90
2023-05-10T14:34:34.428Z,2.80
2023-05-10T14:37:02.267Z,3.08
2023-05-10T14:39:32.629Z,3.00
2023-05-10T14:42:00.106Z,3.00
2023-05-10T14:44:27.399Z,3.00
2023-05-10T14:46:54.661Z,3.20
2023-05-10T14:49:23.844Z,3.00
2023-05-10T14:51:51.168Z,3.22
2023-05-10T14:54:18.407Z,3.20
2023-05-10T14:56:46.106Z,3.35
2023-05-10T14:59:13.336Z,2.80
2023-05-10T15:01:43.041Z,3.38
2023-05-10T15:04:10.833Z,3.13
2023-05-10T15:06:38.595Z,3.10
2023-05-10T15:09:05.823Z,3.00
2023-05-10T15:11:33.228Z,3.00
2023-05-10T15:14:00.564Z,3.00
2023-05-10T15:16:27.917Z,2.78
2023-05-10T15:18:55.291Z,2.70
2023-05-10T15:21:22.642Z,2.47
2023-05-10T15:23:49.909Z,2.67
2023-05-10T15:26:17.152Z,2.53
2023-05-10T15:28:44.686Z,2.85
2023-05-10T15:31:12.350Z,2.50
2023-05-10T15:33:44.826Z,2.63
2023-05-10T15:36:12.560Z,2.63
2023-05-10T15:38:39.792Z,3.00
2023-05-10T15:41:07.209Z,3.05
2023-05-10T15:43:34.400Z,2.78
2023-05-10T15:46:01.654Z,2.30
2023-05-10T15:48:28.852Z,2.55
2023-05-10T15:50:57.008Z,2.67
2023-05-10T15:53:24.420Z,3.00
2023-05-10T15:55:52.010Z,3.03
2023-05-10T15:58:19.665Z,2.67
2023-05-10T16:00:47.205Z,3.20
2023-05-10T16:03:14.533Z,2.80
2023-05-10T16:05:41.864Z,3.35
2023-05-10T16:08:09.068Z,3.60
2023-05-10T16:10:36.751Z,3.35
2023-05-10T16:13:04.212Z,3.60
2023-05-10T16:15:31.453Z,3.50
2023-05-10T16:17:58.830Z,3.30
2023-05-10T16:20:26.741Z,4.03
2023-05-10T16:22:53.952Z,3.70
2023-05-10T16:25:21.431Z,3.88
2023-05-10T16:27:48.684Z,3.45
2023-05-10T16:30:16.062Z,3.83
2023-05-10T16:32:43.348Z,3.75
2023-05-10T16:35:11.001Z,3.75
2023-05-10T16:37:38.333Z,3.58
2023-05-10T16:40:06.336Z,3.20
2023-05-10T16:42:33.959Z,3.55
2023-05-10T16:45:07.784Z,3.88
2023-05-10T16:47:38.881Z,3.85
2023-05-10T16:50:07.989Z,3.93
2023-05-10T16:52:36.527Z,3.90
2023-05-10T16:55:04.608Z,4.25
2023-05-10T16:57:32.981Z,4.30
2023-05-10T17:00:00.909Z,3.70
2023-05-10T17:02:28.554Z,4.07
2023-05-10T17:04:56.333Z,3.58
2023-05-10T17:07:26.047Z,3.53
2023-05-10T17:09:53.566Z,3.35
2023-05-10T17:12:20.851Z,3.50
2023-05-10T17:14:48.058Z,3.50
2023-05-10T17:17:15.274Z,3.35
2023-05-10T17:19:45.499Z,3.30
2023-05-10T17:22:14.201Z,2.95
2023-05-10T17:24:41.484Z,3.10
2023-05-10T17:27:08.826Z,3.17
2023-05-10T17:29:36.039Z,3.00
2023-05-10T17:32:03.401Z,3.20
2023-05-10T17:34:30.686Z,3.10
2023-05-10T17:36:58.114Z,3.33
2023-05-10T17:39:25.300Z,3.30
2023-05-10T17:41:52.584Z,3.03
2023-05-10T17:44:19.913Z,3.53
2023-05-10T17:46:47.742Z,3.72
2023-05-10T17:49:15.396Z,2.90
2023-05-10T17:51:44.145Z,3.60
2023-05-10T17:54:11.409Z,3.20
2023-05-10T17:56:38.689Z,3.50
2023-05-10T17:59:05.916Z,3.80
2023-05-10T18:01:33.252Z,3.70
2023-05-10T18:04:00.628Z,3.58
2023-05-10T18:06:27.864Z,3.67
2023-05-10T18:08:55.341Z,3.10
2023-05-10T18:11:22.988Z,3.30
2023-05-10T18:13:50.221Z,3.33
2023-05-10T18:16:17.531Z,3.08
2023-05-10T18:18:44.822Z,3.40
2023-05-10T18:21:12.129Z,3.75
2023-05-10T18:23:39.336Z,4.15
2023-05-10T18:26:08.228Z,3.92
2023-05-10T18:28:36.623Z,4.93
2023-05-10T18:31:03.959Z,3.80
2023-05-10T18:33:31.300Z,3.58
2023-05-10T18:35:58.529Z,3.10
2023-05-10T18:38:25.837Z,3.75
2023-05-10T18:40:53.071Z,3.78
2023-05-10T18:43:20.296Z,3.90
2023-05-10T18:45:47.468Z,3.97
2023-05-10T18:48:14.717Z,4.13
2023-05-10T18:50:42.121Z,4.40
2023-05-10T18:53:09.311Z,4.47
2023-05-10T18:55:36.599Z,4.20
2023-05-10T18:58:03.907Z,4.82
2023-05-10T19:00:31.220Z,4.40
2023-05-10T19:02:58.764Z,3.60
2023-05-10T19:05:30.299Z,3.75
2023-05-10T19:07:57.788Z,3.92
2023-05-10T19:10:25.129Z,3.85
2023-05-10T19:12:52.512Z,4.60
2023-05-10T19:15:21.777Z,4.22
2023-05-10T19:17:51.445Z,4.53
2023-05-10T19:20:18.936Z,4.13
2023-05-10T19:23:02.018Z,4.55
2023-05-10T19:25:34.792Z,4.80
2023-05-10T19:28:02.102Z,4.50
2023-05-10T19:30:31.776Z,4.45
2023-05-10T19:32:59.247Z,4.63
2023-05-10T19:35:26.614Z,4.78
2023-05-10T19:37:54.366Z,4.25
2023-05-10T19:40:23.219Z,4.72
2023-05-10T19:42:51.419Z,4.03
2023-05-10T19:45:18.954Z,4.68
2023-05-10T19:47:46.632Z,5.10
2023-05-10T19:50:18.299Z,5.63
2023-05-10T19:52:46.107Z,5.50
2023-05-10T19:55:25.119Z,4.93
2023-05-10T19:57:52.633Z,4.90
2023-05-10T20:00:20.039Z,4.22
2023-05-10T20:02:47.315Z,4.03
2023-05-10T20:05:15.005Z,4.40
2023-05-10T20:07:42.363Z,3.95
2023-05-10T20:10:10.787Z,3.90
2023-05-10T20:12:38.038Z,4.25
2023-05-10T20:15:08.028Z,4.32
2023-05-10T20:17:36.377Z,4.28
2023-05-10T20:20:03.976Z,5.03
2023-05-10T20:22:31.312Z,4.78
2023-05-10T20:24:59.068Z,4.07
2023-05-10T20:27:27.324Z,3.78
2023-05-10T20:29:54.659Z,5.15
2023-05-10T20:32:21.982Z,4.43
2023-05-10T20:34:49.913Z,4.32
2023-05-10T20:37:17.896Z,4.28
2023-05-10T20:39:45.247Z,4.18
2023-05-10T20:42:12.841Z,4.00
2023-05-10T20:44:40.146Z,3.75
2023-05-10T20:47:07.979Z,4.63
2023-05-10T20:49:37.898Z,4.22
2023-05-10T20:52:05.971Z,4.68
2023-05-10T20:54:33.160Z,4.55
2023-05-10T20:57:02.166Z,4.75
2023-05-10T20:59:29.427Z,4.10
2023-05-10T21:02:00.037Z,4.13
2023-05-10T21:04:27.548Z,4.85
2023-05-10T21:06:56.999Z,4.72
2023-05-10T21:09:24.247Z,4.80
2023-05-10T21:11:51.764Z,4.55
2023-05-10T21:14:19.404Z,5.30
2023-05-10T21:16:46.721Z,5.00
2023-05-10T21:19:15.038Z,4.90
2023-05-10T21:21:42.353Z,5.03
2023-05-10T21:24:09.980Z,4.70
2023-05-10T21:26:37.555Z,4.82
2023-05-10T21:29:05.021Z,4.70
2023-05-10T21:31:32.471Z,4.15
2023-05-10T21:33:59.867Z,4.82
2023-05-10T21:36:27.334Z,4.65
2023-05-10T21:38:54.675Z,5.43
2023-05-10T21:41:22.237Z,4.95
2023-05-10T21:43:49.572Z,4.65
2023-05-10T21:46:18.697Z,4.40
2023-05-10T21:48:46.172Z,4.72
2023-05-10T21:51:13.477Z,4.95
2023-05-10T21:53:40.947Z,4.72
2023-05-10T21:56:08.285Z,4.55
2023-05-10T21:58:35.798Z,4.40
2023-05-10T22:01:03.503Z,4.35
2023-05-10T22:03:31.039Z,4.80
2023-05-10T22:05:58.399Z,5.13
2023-05-10T22:08:25.849Z,4.75
2023-05-10T22:10:53.168Z,4.70
2023-05-10T22:13:20.465Z,5.00
2023-05-10T22:15:48.664Z,4.72
2023-05-10T22:18:16.447Z,4.40
2023-05-10T22:20:47.399Z,3.92
2023-05-10T22:23:15.188Z,4.50
2023-05-10T22:25:42.581Z,4.35
2023-05-10T22:28:10.395Z,4.43
2023-05-10T22:30:37.805Z,4.85
2023-05-10T22:33:05.178Z,4.60
2023-05-10T22:35:32.608Z,4.43
2023-05-10T22:37:59.870Z,4.65
2023-05-10T22:40:27.207Z,4.20
2023-05-10T22:42:54.583Z,8.13
2023-05-10T22:45:21.862Z,4.90
2023-05-10T22:47:49.169Z,4.85
2023-05-10T22:50:17.382Z,4.97
2023-05-10T22:52:44.817Z,4.30
2023-05-10T22:55:12.112Z,4.53
2023-05-10T22:57:39.590Z,4.15
2023-05-10T23:00:07.645Z,5.38
2023-05-10T23:02:35.171Z,5.07
2023-05-10T23:05:02.565Z,3.92
2023-05-10T23:07:30.031Z,4.78
2023-05-10T23:09:57.501Z,4.70
2023-05-10T23:12:25.235Z,5.32
2023-05-10T23:14:52.595Z,4.65
2023-05-10T23:17:19.889Z,5.47
2023-05-10T23:19:47.265Z,4.18
2023-05-10T23:22:14.634Z,4.70
2023-05-10T23:24:42.090Z,5.15
2023-05-10T23:27:09.396Z,4.97
2023-05-10T23:29:36.692Z,4.68
2023-05-10T23:32:04.527Z,5.65
2023-05-10T23:34:32.507Z,5.20
2023-05-10T23:37:00.003Z,5.43
2023-05-10T23:39:27.437Z,4.85
2023-05-10T23:41:55.330Z,5.85
2023-05-10T23:44:22.538Z,4.97
2023-05-10T23:46:49.812Z,4.90
2023-05-10T23:49:17.510Z,4.72
2023-05-10T23:51:44.809Z,5.70
2023-05-10T23:54:12.497Z,5.35
2023-05-10T23:56:39.927Z,5.05
2023-05-10T23:59:07.258Z,5.43
